Time;durP1;ratioP1;P1;durP2;ratioP2;P2;SDS_P1;SDS_P2;PMS_P1;PMS_P2;Temp;Humidity;BMP_temperature;BMP_pressure;BME280_temperature;BME280_humidity;BME280_pressure;Samples;Min_cycle;Max_cycle;Signal;HPM_P1;HPM_P2
2023/07/04 00:01:13;;;;;;;6.35;0.40;;;;;;;18.17;61.73;100711.84;7359260;19;20010;-67
2023/07/04 00:03:44;;;;;;;6.20;0.43;;;;;;;18.14;62.31;100704.25;7359263;19;20011;-64
2023/07/04 00:06:14;;;;;;;8.65;0.60;;;;;;;18.15;62.01;100705.88;7359409;19;20355;-64
2023/07/04 00:08:41;;;;;;;5.28;0.40;;;;;;;18.10;62.18;100703.84;7359488;19;20022;-65
2023/07/04 00:11:09;;;;;;;5.68;0.85;;;;;;;18.10;62.87;100708.34;7361900;19;20034;-65
2023/07/04 00:13:37;;;;;;;7.30;0.50;;;;;;;18.09;62.88;100704.88;7362837;19;20014;-65
2023/07/04 00:16:07;;;;;;;4.63;0.45;;;;;;;18.10;62.45;100705.69;7359440;19;20029;-64
2023/07/04 00:18:36;;;;;;;4.40;0.38;;;;;;;18.09;62.83;100707.53;7358952;19;20030;-64
2023/07/04 00:21:07;;;;;;;4.97;0.57;;;;;;;18.11;62.50;100708.16;7365020;19;20439;-65
2023/07/04 00:23:35;;;;;;;5.40;0.30;;;;;;;18.10;62.52;100714.50;7361881;19;20022;-65
2023/07/04 00:26:06;;;;;;;4.63;0.40;;;;;;;18.04;62.27;100715.31;7363022;19;20040;-65
2023/07/04 00:28:38;;;;;;;5.65;0.43;;;;;;;17.92;62.60;100712.47;7362750;19;20019;-65
2023/07/04 00:31:07;;;;;;;9.85;1.33;;;;;;;17.91;63.78;100708.16;7361313;19;20011;-65
2023/07/04 00:33:35;;;;;;;8.88;0.50;;;;;;;17.95;63.59;100705.88;7360822;19;20608;-66
2023/07/04 00:36:05;;;;;;;6.43;0.50;;;;;;;17.96;64.03;100707.53;7361392;19;20102;-65
2023/07/04 00:38:33;;;;;;;4.50;0.40;;;;;;;17.98;63.93;100716.13;7361683;19;20018;-66
2023/07/04 00:41:02;;;;;;;3.17;0.40;;;;;;;17.98;64.45;100707.34;7360661;19;20453;-65
2023/07/04 00:43:59;;;;;;;5.88;0.40;;;;;;;17.93;63.63;100707.91;7359164;19;20014;-64
2023/07/04 00:46:40;;;;;;;7.40;0.50;;;;;;;17.84;64.51;100709.16;7359987;19;20053;-66
2023/07/04 00:49:17;;;;;;;5.13;0.40;;;;;;;17.77;64.47;100708.34;7365298;19;20623;-65
2023/07/04 00:51:56;;;;;;;4.45;0.50;;;;;;;17.74;65.04;100696.25;7365876;19;20014;-64
2023/07/04 00:54:28;;;;;;;6.78;0.80;;;;;;;17.73;64.94;100705.25;7367547;19;20135;-65
2023/07/04 00:57:02;;;;;;;4.88;0.40;;;;;;;17.71;65.04;100715.28;7364252;19;20724;-64
2023/07/04 00:59:32;;;;;;;9.30;0.70;;;;;;;17.78;64.83;100712.63;7367428;19;20090;-65
2023/07/04 01:02:00;;;;;;;4.80;0.50;;;;;;;17.82;65.39;100714.69;7363313;19;20029;-64
2023/07/04 01:04:27;;;;;;;5.85;0.40;;;;;;;17.84;65.09;100709.97;7367688;19;20018;-64
2023/07/04 01:07:19;;;;;;;3.50;0.47;;;;;;;17.85;65.33;100710.78;7364607;19;20018;-65
2023/07/04 01:09:55;;;;;;;4.57;0.43;;;;;;;17.83;65.00;100710.97;7368177;19;20022;-66
2023/07/04 01:12:27;;;;;;;4.78;0.50;;;;;;;17.84;65.26;100714.47;7368435;19;20022;-64
2023/07/04 01:14:54;;;;;;;6.10;0.75;;;;;;;17.84;64.78;100706.50;7367981;19;20014;-65
2023/07/04 01:17:23;;;;;;;8.40;0.60;;;;;;;17.82;64.91;100704.03;7364017;19;20021;-65
2023/07/04 01:19:51;;;;;;;8.02;1.80;;;;;;;17.81;64.93;100698.91;7364720;19;20696;-65
2023/07/04 01:22:38;;;;;;;6.75;0.93;;;;;;;17.80;65.16;100699.94;7367697;19;20077;-64
2023/07/04 01:25:09;;;;;;;8.18;0.80;;;;;;;17.75;65.14;100705.03;7364931;19;20019;-65
2023/07/04 01:27:39;;;;;;;3.35;0.40;;;;;;;17.72;65.74;100700.97;7368045;19;20018;-65
2023/07/04 01:30:08;;;;;;;4.00;0.40;;;;;;;17.71;65.38;100714.47;7365265;19;20019;-64
2023/07/04 01:32:39;;;;;;;5.68;0.45;;;;;;;17.70;65.47;100712.81;7365474;19;20026;-65
2023/07/04 01:35:08;;;;;;;8.25;0.35;;;;;;;17.65;65.88;100702.78;7367248;19;20022;-64
2023/07/04 01:37:35;;;;;;;7.65;0.40;;;;;;;17.70;65.75;100702.16;7365516;19;20018;-65
2023/07/04 01:40:07;;;;;;;3.95;0.43;;;;;;;17.73;65.30;100710.56;7364525;19;20021;-65
2023/07/04 01:42:36;;;;;;;6.63;0.50;;;;;;;17.67;65.10;100705.25;7365334;19;20021;-66
2023/07/04 01:45:10;;;;;;;5.95;0.60;;;;;;;17.65;66.58;100704.63;7367705;19;20019;-65
2023/07/04 01:47:38;;;;;;;4.28;0.40;;;;;;;17.66;66.10;100696.44;7366201;19;20863;-65
2023/07/04 01:50:08;;;;;;;8.82;0.40;;;;;;;17.64;65.58;100693.16;7367023;19;20507;-64
2023/07/04 01:52:35;;;;;;;8.05;0.43;;;;;;;17.64;65.68;100697.66;7366834;19;20010;-65
2023/07/04 01:55:03;;;;;;;6.28;0.40;;;;;;;17.65;66.06;100704.63;7363993;19;20101;-63
2023/07/04 01:57:30;;;;;;;6.30;0.80;;;;;;;17.67;66.15;100692.75;7367344;19;20706;-65
2023/07/04 01:59:57;;;;;;;8.55;0.35;;;;;;;17.69;65.88;100696.03;7362024;19;20101;-64
2023/07/04 02:02:24;;;;;;;9.95;0.95;;;;;;;17.71;66.08;100696.66;7366211;19;20010;-64
2023/07/04 02:04:51;;;;;;;4.60;0.30;;;;;;;17.72;66.41;100697.47;7366115;19;20098;-65
2023/07/04 02:07:19;;;;;;;6.55;0.60;;;;;;;17.73;66.53;100697.25;7362366;19;20010;-65
2023/07/04 02:09:46;;;;;;;5.25;0.35;;;;;;;17.72;66.94;100694.81;7363246;19;20081;-64
2023/07/04 02:12:13;;;;;;;6.88;0.45;;;;;;;17.71;66.50;100695.84;7366219;19;20020;-64
2023/07/04 02:14:40;;;;;;;6.28;0.50;;;;;;;17.70;66.23;100700.34;7363868;19;20018;-64
2023/07/04 02:17:07;;;;;;;7.60;0.77;;;;;;;17.67;66.27;100699.94;7365899;19;20510;-64
2023/07/04 02:19:34;;;;;;;6.50;0.40;;;;;;;17.69;66.34;100701.34;7364279;19;20022;-64
2023/07/04 02:22:01;;;;;;;5.22;0.45;;;;;;;17.70;67.56;100692.34;7360342;19;20125;-64
2023/07/04 02:24:28;;;;;;;8.68;0.40;;;;;;;17.69;66.59;100693.38;7367092;19;20958;-65
2023/07/04 02:26:55;;;;;;;4.70;0.40;;;;;;;17.66;66.66;100696.44;7361597;19;20015;-65
2023/07/04 02:29:22;;;;;;;6.07;0.50;;;;;;;17.63;66.58;100686.19;7363105;19;20014;-65
2023/07/04 02:31:49;;;;;;;3.47;0.40;;;;;;;17.59;66.73;100692.94;7360467;19;20011;-66
2023/07/04 02:34:16;;;;;;;5.78;0.40;;;;;;;17.56;66.69;100685.34;7366778;19;20590;-66
2023/07/04 02:36:43;;;;;;;5.07;0.38;;;;;;;17.57;67.22;100678.19;7366615;19;20796;-65
2023/07/04 02:39:10;;;;;;;4.47;0.50;;;;;;;17.56;67.33;100685.34;7365535;19;20029;-64
2023/07/04 02:41:37;;;;;;;6.28;0.43;;;;;;;17.54;67.00;100680.22;7363430;19;20711;-64
2023/07/04 02:44:04;;;;;;;5.72;0.73;;;;;;;17.60;67.95;100678.63;7363546;19;22081;-65
2023/07/04 02:46:31;;;;;;;6.22;0.50;;;;;;;17.62;67.04;100683.75;7361656;19;20022;-65
2023/07/04 02:48:59;;;;;;;4.93;0.38;;;;;;;17.63;67.09;100682.69;7359763;19;20018;-65
2023/07/04 02:51:26;;;;;;;7.82;1.25;;;;;;;17.63;67.21;100686.19;7364283;19;20043;-65
2023/07/04 02:53:53;;;;;;;4.35;0.40;;;;;;;17.63;67.11;100680.03;7364062;19;20026;-65
2023/07/04 02:56:20;;;;;;;9.43;0.60;;;;;;;17.57;67.25;100671.00;7366083;19;20018;-63
2023/07/04 02:58:47;;;;;;;7.88;0.68;;;;;;;17.57;67.24;100673.69;7358794;19;20007;-64
2023/07/04 03:01:14;;;;;;;4.82;0.50;;;;;;;17.57;67.60;100678.19;7360060;19;20015;-66
2023/07/04 03:03:41;;;;;;;4.72;0.50;;;;;;;17.56;67.57;100672.03;7363857;19;21681;-66
2023/07/04 03:06:08;;;;;;;4.88;0.50;;;;;;;17.56;67.22;100679.19;7366154;19;20040;-65
2023/07/04 03:08:35;;;;;;;2.55;0.50;;;;;;;17.51;67.29;100677.13;7360691;19;20015;-65
2023/07/04 03:11:03;;;;;;;4.78;0.73;;;;;;;17.49;67.90;100672.00;7361692;19;20023;-63
2023/07/04 03:13:32;;;;;;;5.03;0.40;;;;;;;17.45;67.93;100686.75;7363409;19;20015;-64
2023/07/04 03:15:59;;;;;;;3.10;0.50;;;;;;;17.40;68.02;100680.38;7363002;19;20622;-65
2023/07/04 03:18:27;;;;;;;6.35;0.55;;;;;;;17.34;68.01;100681.19;7358417;19;20529;-64
2023/07/04 03:20:54;;;;;;;6.90;0.90;;;;;;;17.29;68.64;100672.97;7363601;19;20042;-65
2023/07/04 03:23:21;;;;;;;7.68;0.95;;;;;;;17.31;69.02;100669.13;7361576;19;20013;-65
2023/07/04 03:25:48;;;;;;;8.93;0.55;;;;;;;17.34;69.02;100671.38;7364867;19;20556;-65
2023/07/04 03:28:15;;;;;;;3.90;0.50;;;;;;;17.36;68.53;100664.00;7362679;19;20014;-65
2023/07/04 03:30:42;;;;;;;7.78;0.82;;;;;;;17.34;68.33;100665.22;7364714;19;20014;-65
2023/07/04 03:33:09;;;;;;;8.90;0.50;;;;;;;17.28;68.77;100660.69;7363620;19;20047;-64
2023/07/04 03:35:40;;;;;;;11.40;0.70;;;;;;;17.24;69.08;100664.78;7361847;19;20187;-64
2023/07/04 03:38:24;;;;;;;8.85;0.50;;;;;;;17.19;69.96;100665.38;7361088;19;20832;-65
2023/07/04 03:40:51;;;;;;;4.45;0.50;;;;;;;17.16;69.55;100665.78;7358882;19;20582;-64
2023/07/04 03:43:19;;;;;;;5.90;0.50;;;;;;;17.15;69.66;100655.34;7363841;19;20935;-64
2023/07/04 03:45:46;;;;;;;8.60;0.50;;;;;;;17.13;69.90;100657.38;7359247;19;20016;-64
2023/07/04 03:48:13;;;;;;;5.97;0.63;;;;;;;17.14;70.11;100651.03;7357683;19;20067;-64
2023/07/04 03:50:40;;;;;;;4.95;0.50;;;;;;;17.14;69.99;100656.38;7362050;19;20010;-66
2023/07/04 03:53:07;;;;;;;5.38;0.60;;;;;;;17.20;70.25;100650.25;7360625;19;20103;-65
2023/07/04 03:55:35;;;;;;;4.93;0.57;;;;;;;17.22;69.97;100654.34;7362519;19;20002;-64
2023/07/04 03:58:02;;;;;;;8.02;0.73;;;;;;;17.20;69.85;100653.72;7361695;19;20018;-67
2023/07/04 04:00:29;;;;;;;7.70;0.60;;;;;;;17.21;69.69;100655.38;7357413;19;20018;-64
2023/07/04 04:02:57;;;;;;;3.97;0.50;;;;;;;17.22;70.00;100659.66;7361698;19;20836;-65
2023/07/04 04:05:24;;;;;;;4.72;0.40;;;;;;;17.21;70.08;100665.19;7361115;19;20102;-64
2023/07/04 04:07:51;;;;;;;6.47;0.50;;;;;;;17.16;70.29;100652.50;7360424;19;20006;-64
2023/07/04 04:10:18;;;;;;;7.40;0.40;;;;;;;17.16;70.26;100659.66;7357180;19;20069;-66
2023/07/04 04:12:46;;;;;;;5.15;0.63;;;;;;;17.16;70.62;100657.81;7361693;19;20010;-65
2023/07/04 04:15:13;;;;;;;6.13;0.52;;;;;;;17.17;70.98;100663.97;7361308;19;20022;-64
2023/07/04 04:17:40;;;;;;;2.40;0.40;;;;;;;17.15;70.44;100664.16;7359935;19;20118;-68
2023/07/04 04:20:09;;;;;;;4.78;0.50;;;;;;;17.14;70.62;100674.97;7360318;19;20010;-66
2023/07/04 04:22:43;;;;;;;5.50;0.68;;;;;;;17.13;70.87;100668.84;7354882;19;20850;-64
2023/07/04 04:25:15;;;;;;;5.53;0.50;;;;;;;17.17;71.03;100677.25;7361259;19;20031;-65
2023/07/04 04:27:46;;;;;;;5.97;0.60;;;;;;;17.19;70.94;100677.84;7359118;19;20018;-70
2023/07/04 04:30:15;;;;;;;4.40;0.52;;;;;;;17.19;70.91;100681.34;7358019;19;20026;-65
2023/07/04 04:32:44;;;;;;;6.82;1.20;;;;;;;17.24;71.18;100675.41;7357344;19;21119;-65
2023/07/04 04:35:12;;;;;;;6.90;0.70;;;;;;;17.24;71.11;100676.25;7357546;19;20030;-64
2023/07/04 04:37:39;;;;;;;6.88;0.70;;;;;;;17.27;71.55;100675.84;7359788;19;20106;-65
2023/07/04 04:40:07;;;;;;;7.50;0.50;;;;;;;17.25;70.67;100671.75;7357982;19;20015;-64
2023/07/04 04:42:43;;;;;;;5.18;0.47;;;;;;;17.23;71.15;100668.47;7358313;19;20526;-64
2023/07/04 04:45:12;;;;;;;8.90;1.90;;;;;;;17.19;71.31;100667.22;7356226;19;20018;-64
2023/07/04 04:47:39;;;;;;;8.60;0.70;;;;;;;17.18;72.30;100669.06;7356116;19;20090;-65
2023/07/04 04:50:06;;;;;;;5.00;0.55;;;;;;;17.15;72.29;100674.78;7354574;19;20051;-65
2023/07/04 04:52:33;;;;;;;8.93;0.55;;;;;;;17.13;72.50;100663.53;7359029;19;20025;-64
2023/07/04 04:55:01;;;;;;;7.18;0.57;;;;;;;17.09;72.95;100667.59;7359301;19;20019;-64
2023/07/04 04:57:29;;;;;;;8.50;0.70;;;;;;;17.07;73.26;100665.13;7360614;19;20010;-64
2023/07/04 04:59:59;;;;;;;6.57;0.57;;;;;;;17.00;72.70;100674.94;7357629;19;20097;-65
2023/07/04 05:02:29;;;;;;;4.93;0.60;;;;;;;16.97;73.40;100675.31;7360233;19;20023;-65
2023/07/04 05:04:59;;;;;;;8.98;0.50;;;;;;;17.02;74.91;100669.41;7357781;19;20025;-65
2023/07/04 05:07:27;;;;;;;7.45;0.60;;;;;;;16.98;74.01;100669.00;7358236;19;20384;-64
2023/07/04 05:09:55;;;;;;;6.05;0.60;;;;;;;16.97;73.81;100674.50;7356998;19;21645;-65
2023/07/04 05:12:22;;;;;;;5.05;0.50;;;;;;;17.00;73.97;100679.44;7356579;19;20155;-66
2023/07/04 05:14:49;;;;;;;5.47;0.65;;;;;;;16.97;73.61;100685.94;7357143;19;20014;-65
2023/07/04 05:17:17;;;;;;;6.63;0.52;;;;;;;17.01;73.87;100676.59;7358585;19;20015;-64
2023/07/04 05:19:48;;;;;;;5.28;0.40;;;;;;;17.04;73.80;100678.00;7357166;19;20055;-64
2023/07/04 05:22:16;;;;;;;9.23;0.50;;;;;;;17.05;73.43;100687.63;7357970;19;20018;-66
2023/07/04 05:24:43;;;;;;;3.17;0.52;;;;;;;17.07;73.02;100683.75;7356190;19;20023;-65
2023/07/04 05:27:11;;;;;;;8.93;1.63;;;;;;;17.09;73.41;100697.69;7358769;19;20015;-64
2023/07/04 05:29:38;;;;;;;6.55;0.60;;;;;;;17.14;73.34;100690.94;7358804;19;20018;-64
2023/07/04 05:32:05;;;;;;;5.80;0.70;;;;;;;17.17;73.84;100690.56;7358059;19;20105;-65
2023/07/04 05:34:32;;;;;;;11.23;1.40;;;;;;;17.19;73.34;100691.16;7364697;19;20014;-64
2023/07/04 05:37:03;;;;;;;3.92;0.43;;;;;;;17.15;72.61;100680.09;7366001;19;20117;-65
2023/07/04 05:39:30;;;;;;;5.60;0.52;;;;;;;17.15;72.74;100674.78;7365000;19;20570;-65
2023/07/04 05:41:58;;;;;;;10.07;0.60;;;;;;;17.17;73.03;100656.78;7363544;19;20040;-65
2023/07/04 05:44:25;;;;;;;7.43;0.80;;;;;;;17.18;72.79;100658.41;7365913;19;20619;-65
2023/07/04 05:46:54;;;;;;;7.72;0.63;;;;;;;17.20;73.33;100653.72;7360181;19;20036;-66
2023/07/04 05:49:21;;;;;;;4.72;0.57;;;;;;;17.24;72.30;100654.16;7362733;19;20019;-65
2023/07/04 05:51:48;;;;;;;5.55;0.47;;;;;;;17.26;72.26;100652.13;7361171;19;20041;-64
2023/07/04 05:54:15;;;;;;;5.15;0.60;;;;;;;17.27;72.13;100648.44;7362713;19;20620;-64
2023/07/04 05:56:43;;;;;;;5.72;0.52;;;;;;;17.22;72.33;100649.00;7364983;19;20047;-65
2023/07/04 05:59:10;;;;;;;6.55;0.50;;;;;;;17.23;72.61;100648.00;7364834;19;20031;-64
2023/07/04 06:01:40;;;;;;;7.57;0.65;;;;;;;17.23;72.69;100655.97;7361244;19;21144;-64
2023/07/04 06:04:12;;;;;;;5.47;0.43;;;;;;;17.25;72.94;100663.78;7364496;19;20031;-65
2023/07/04 06:06:51;;;;;;;5.78;0.47;;;;;;;17.28;72.67;100656.19;7362263;19;20029;-64
2023/07/04 06:09:20;;;;;;;5.78;0.60;;;;;;;17.34;72.69;100658.06;7363814;19;20014;-65
2023/07/04 06:11:48;;;;;;;6.72;0.73;;;;;;;17.37;72.23;100665.63;7362814;19;20022;-65
2023/07/04 06:14:26;;;;;;;5.90;0.60;;;;;;;17.39;72.60;100660.13;7361274;19;20525;-65
2023/07/04 06:16:57;;;;;;;7.22;0.70;;;;;;;17.36;71.99;100679.97;7364403;19;20025;-64
2023/07/04 06:19:25;;;;;;;8.95;1.15;;;;;;;17.42;72.05;100671.16;7362824;19;20014;-64
2023/07/04 06:21:56;;;;;;;8.07;0.63;;;;;;;17.42;71.49;100667.72;7363862;19;20525;-64
2023/07/04 06:24:25;;;;;;;5.43;0.50;;;;;;;17.46;71.36;100671.59;7363538;19;20043;-65
2023/07/04 06:26:52;;;;;;;9.88;0.70;;;;;;;17.46;70.67;100684.91;7364733;19;20263;-65
2023/07/04 06:29:19;;;;;;;5.95;0.55;;;;;;;17.44;71.04;100678.97;7360802;19;20608;-65
2023/07/04 06:31:48;;;;;;;7.65;0.70;;;;;;;17.47;71.29;100686.56;7364019;19;20022;-66
2023/07/04 06:34:15;;;;;;;5.78;0.60;;;;;;;17.51;71.00;100685.94;7363089;19;20010;-65
2023/07/04 06:36:48;;;;;;;5.03;0.65;;;;;;;17.56;70.57;100689.84;7364109;19;20019;-65
2023/07/04 06:39:15;;;;;;;5.72;0.60;;;;;;;17.60;70.68;100691.09;7360691;19;20085;-65
2023/07/04 06:41:42;;;;;;;7.10;0.70;;;;;;;17.60;70.07;100683.13;7356676;19;20022;-65
2023/07/04 06:44:09;;;;;;;7.95;0.77;;;;;;;17.59;70.25;100682.28;7360948;19;20482;-64
2023/07/04 06:46:36;;;;;;;5.90;0.50;;;;;;;17.63;69.94;100696.00;7362754;19;20017;-66
2023/07/04 06:49:05;;;;;;;12.88;0.77;;;;;;;17.64;69.98;100703.78;7358736;19;20014;-66
2023/07/04 06:51:33;;;;;;;7.28;0.88;;;;;;;17.62;69.59;100710.34;7359426;19;20543;-64
2023/07/04 06:54:01;;;;;;;2.60;0.40;;;;;;;17.64;69.80;100711.78;7361144;19;20010;-65
2023/07/04 06:56:30;;;;;;;4.90;0.50;;;;;;;17.64;69.42;100714.44;7365251;19;20046;-64
2023/07/04 06:58:58;;;;;;;6.35;0.60;;;;;;;17.65;68.57;100717.94;7362545;19;20014;-64
2023/07/04 07:01:28;;;;;;;7.00;0.60;;;;;;;17.68;69.66;100714.84;7362621;19;20028;-64
2023/07/04 07:03:57;;;;;;;7.03;0.60;;;;;;;17.68;69.47;100725.50;7360639;19;20991;-64
2023/07/04 07:06:26;;;;;;;7.47;0.60;;;;;;;17.70;68.43;100726.13;7367181;19;20797;-65
2023/07/04 07:08:53;;;;;;;3.80;0.50;;;;;;;17.69;68.12;100719.97;7363203;19;20023;-65
2023/07/04 07:11:21;;;;;;;8.52;2.08;;;;;;;17.69;68.13;100719.97;7364931;19;20027;-64
2023/07/04 07:13:49;;;;;;;7.35;1.00;;;;;;;17.70;68.25;100703.00;7359455;19;20037;-65
2023/07/04 07:16:22;;;;;;;4.72;0.50;;;;;;;17.74;68.04;100701.56;7363701;19;20038;-65
2023/07/04 07:18:52;;;;;;;5.63;0.55;;;;;;;17.76;67.44;100712.84;7359308;19;20011;-65
2023/07/04 07:21:22;;;;;;;4.18;0.50;;;;;;;17.79;66.47;100715.09;7362104;19;20010;-65
2023/07/04 07:23:50;;;;;;;6.65;0.40;;;;;;;17.77;65.76;100708.34;7365022;19;20014;-65
2023/07/04 07:26:24;;;;;;;4.65;0.68;;;;;;;17.78;65.77;100713.44;7364367;19;20010;-63
2023/07/04 07:28:53;;;;;;;6.05;0.50;;;;;;;17.81;66.02;100720.22;7363580;19;20017;-65
2023/07/04 07:31:23;;;;;;;5.20;0.45;;;;;;;17.86;66.09;100715.09;7361579;19;20022;-70
2023/07/04 07:34:00;;;;;;;5.93;0.90;;;;;;;17.97;65.70;100719.84;7362753;19;20018;-64
2023/07/04 07:36:32;;;;;;;11.32;2.15;;;;;;;18.07;64.76;100717.59;7361492;19;20050;-65
2023/07/04 07:39:02;;;;;;;2.88;0.50;;;;;;;18.12;64.67;100723.13;7335914;19;20022;-65
2023/07/04 07:41:36;;;;;;;3.88;0.40;;;;;;;18.19;64.14;100728.41;7349462;19;20021;-65
2023/07/04 07:44:05;;;;;;;7.07;0.50;;;;;;;18.25;63.63;100717.78;7359397;19;20656;-65
2023/07/04 07:46:33;;;;;;;4.07;0.70;;;;;;;18.29;63.82;100715.50;7359808;19;20503;-65
2023/07/04 07:49:01;;;;;;;2.47;0.50;;;;;;;18.33;63.44;100714.91;7356234;19;20018;-65
2023/07/04 07:51:29;;;;;;;3.35;0.40;;;;;;;18.36;63.74;100708.34;7354785;19;20126;-68
2023/07/04 07:54:14;;;;;;;4.95;0.50;;;;;;;18.37;64.33;100716.13;7363137;19;20042;-66
2023/07/04 07:56:46;;;;;;;2.53;0.50;;;;;;;18.39;64.59;100707.91;7357853;19;20249;-67
2023/07/04 07:59:13;;;;;;;4.00;0.40;;;;;;;18.41;64.55;100713.06;7360465;19;20010;-65
2023/07/04 08:01:40;;;;;;;3.05;0.40;;;;;;;18.41;64.42;100719.19;7356532;19;20010;-66
2023/07/04 08:04:09;;;;;;;7.43;0.55;;;;;;;18.38;64.12;100719.63;7359687;19;20030;-66
2023/07/04 08:06:44;;;;;;;5.88;0.52;;;;;;;18.36;64.42;100716.34;7359800;19;20030;-65
2023/07/04 08:09:14;;;;;;;4.30;0.50;;;;;;;18.32;64.61;100707.13;7359625;19;20014;-66
2023/07/04 08:11:45;;;;;;;3.72;0.63;;;;;;;18.29;64.02;100711.00;7356995;19;20106;-66
2023/07/04 08:14:15;;;;;;;6.18;0.70;;;;;;;18.33;64.90;100714.91;7354139;19;20390;-67
2023/07/04 08:16:52;;;;;;;9.57;1.02;;;;;;;18.36;66.60;100717.16;7357627;19;20002;-65
2023/07/04 08:19:23;;;;;;;9.80;1.10;;;;;;;18.43;67.14;100708.34;7358724;19;20022;-65
2023/07/04 08:21:51;;;;;;;5.88;1.13;;;;;;;18.50;67.27;100714.47;7356801;19;20075;-66
2023/07/04 08:24:18;;;;;;;5.55;0.60;;;;;;;18.52;65.64;100707.91;7358253;19;20010;-65
2023/07/04 08:26:46;;;;;;;7.30;0.70;;;;;;;18.55;65.63;100706.69;7357803;19;20509;-65
2023/07/04 08:29:14;;;;;;;7.95;1.30;;;;;;;18.60;65.37;100705.06;7358326;19;20022;-65
2023/07/04 08:31:42;;;;;;;7.97;0.57;;;;;;;18.66;64.74;100704.22;7348668;19;20051;-65
2023/07/04 08:34:10;;;;;;;5.07;0.80;;;;;;;18.70;63.98;100708.09;7356870;19;20039;-65
2023/07/04 08:36:39;;;;;;;4.30;0.70;;;;;;;18.72;63.27;100708.72;7358147;19;21570;-65
2023/07/04 08:39:09;;;;;;;5.32;0.60;;;;;;;18.79;62.89;100714.06;7359284;19;20034;-66
2023/07/04 08:41:44;;;;;;;5.53;0.50;;;;;;;18.78;61.66;100713.22;7357284;19;20370;-66
2023/07/04 08:44:28;;;;;;;3.03;0.50;;;;;;;18.86;61.65;100714.00;7358937;19;20914;-66
2023/07/04 08:46:58;;;;;;;5.00;0.60;;;;;;;18.91;61.88;100709.69;7357659;19;22084;-65
2023/07/04 08:49:52;;;;;;;4.90;0.65;;;;;;;18.98;61.33;100702.50;7356421;19;20786;-66
2023/07/04 08:52:30;;;;;;;5.00;0.93;;;;;;;19.10;62.04;100705.31;7356127;19;20122;-65
2023/07/04 08:54:57;;;;;;;4.07;0.45;;;;;;;19.17;59.93;100711.44;7360668;19;20475;-65
2023/07/04 08:57:47;;;;;;;6.10;0.60;;;;;;;19.25;60.15;100711.19;7360725;19;20101;-67
2023/07/04 09:00:39;;;;;;;3.13;0.70;;;;;;;19.33;60.24;100707.47;7354538;19;20055;-67
2023/07/04 09:03:21;;;;;;;3.72;0.52;;;;;;;19.36;60.43;100710.53;7343665;19;20026;-66
2023/07/04 09:06:40;;;;;;;4.22;0.40;;;;;;;19.40;59.23;100710.94;7358506;19;20023;-65
2023/07/04 09:09:23;;;;;;;5.07;0.60;;;;;;;19.40;58.33;100713.59;7363943;19;20022;-66
2023/07/04 09:11:50;;;;;;;;;;;;;;;19.42;58.53;100712.34;7363969;19;21649;-64
2023/07/04 09:15:00;;;;;;;4.70;0.50;;;;;;;19.40;58.09;100719.75;7361665;19;20000;-65
2023/07/04 09:17:43;;;;;;;3.70;0.70;;;;;;;19.39;57.20;100714.63;7364147;19;20027;-66
2023/07/04 09:20:25;;;;;;;2.90;0.40;;;;;;;19.35;56.24;100710.75;7363905;19;20026;-65
2023/07/04 09:22:54;;;;;;;6.80;1.70;;;;;;;19.26;53.78;100709.34;7363627;19;20082;-66
2023/07/04 09:25:22;;;;;;;2.75;0.40;;;;;;;19.19;53.76;100710.22;7363487;19;20023;-67
2023/07/04 09:27:49;;;;;;;4.13;0.43;;;;;;;19.21;54.88;100705.47;7364818;19;20106;-66
2023/07/04 09:30:19;;;;;;;4.03;0.50;;;;;;;19.26;55.85;100720.00;7366736;19;20030;-65
2023/07/04 09:32:47;;;;;;;4.72;0.47;;;;;;;19.31;55.55;100722.88;7365906;19;20041;-65
2023/07/04 09:35:16;;;;;;;10.85;1.27;;;;;;;19.38;55.80;100721.81;7361145;19;20799;-65
2023/07/04 09:37:58;;;;;;;6.88;0.50;;;;;;;19.52;54.94;100722.59;7362548;19;20019;-66
2023/07/04 09:40:39;;;;;;;7.20;0.98;;;;;;;19.71;55.16;100720.84;7363262;19;20010;-65
2023/07/04 09:43:07;;;;;;;4.13;0.60;;;;;;;19.83;56.15;100727.94;7363832;19;20277;-65
2023/07/04 09:45:40;;;;;;;;;;;;;;;19.94;55.37;100721.09;7363148;19;20025;-65
2023/07/04 09:48:09;;;;;;;4.10;0.65;;;;;;;20.00;54.51;100721.06;7365722;19;19915;-66
2023/07/04 09:50:38;;;;;;;5.32;0.50;;;;;;;20.00;54.54;100722.91;7366141;19;20611;-65
2023/07/04 09:53:11;;;;;;;3.45;0.50;;;;;;;20.02;54.62;100728.84;7360658;19;20014;-64
2023/07/04 09:55:41;;;;;;;3.63;0.50;;;;;;;20.05;54.53;100729.25;7347513;19;20043;-65
2023/07/04 09:58:21;;;;;;;3.35;0.50;;;;;;;20.07;55.18;100724.47;7364779;19;20051;-65
2023/07/04 10:01:00;;;;;;;4.82;0.52;;;;;;;20.11;55.60;100718.72;7361831;19;20019;-66
2023/07/04 10:03:28;;;;;;;28.50;17.48;;;;;;;20.18;55.02;100728.31;7359870;19;20016;-66
2023/07/04 10:05:55;;;;;;;6.97;1.30;;;;;;;20.23;55.16;100725.78;7363123;19;20495;-66
2023/07/04 10:08:23;;;;;;;4.40;0.68;;;;;;;20.32;54.91;100713.00;7362972;19;20017;-64
2023/07/04 10:10:52;;;;;;;4.40;0.60;;;;;;;20.36;54.53;100717.72;7361405;19;20014;-65
2023/07/04 10:13:24;;;;;;;5.22;0.55;;;;;;;20.39;54.32;100708.41;7364044;19;20025;-65
2023/07/04 10:15:52;;;;;;;1.88;0.50;;;;;;;20.48;54.26;100705.25;7359535;19;20015;-65
2023/07/04 10:18:26;;;;;;;4.15;0.45;;;;;;;20.55;54.21;100699.84;7358279;19;20007;-65
2023/07/04 10:20:55;;;;;;;3.22;0.50;;;;;;;20.59;54.82;100693.00;7364950;19;20014;-65
2023/07/04 10:23:24;;;;;;;5.47;0.80;;;;;;;20.58;55.12;100707.41;7362602;19;20026;-66
2023/07/04 10:25:54;;;;;;;3.83;0.60;;;;;;;20.55;54.95;100704.38;7365053;19;20502;-64
2023/07/04 10:28:25;;;;;;;5.28;0.60;;;;;;;20.54;55.71;100700.88;7363779;19;20010;-66
2023/07/04 10:31:01;;;;;;;3.42;0.60;;;;;;;20.54;55.81;100698.19;7360118;19;20016;-64
2023/07/04 10:33:41;;;;;;;5.75;0.70;;;;;;;20.59;54.63;100689.50;7361010;19;20015;-64
2023/07/04 10:36:13;;;;;;;2.60;0.60;;;;;;;20.65;54.35;100684.09;7364476;19;20015;-65
2023/07/04 10:38:47;;;;;;;4.70;0.90;;;;;;;20.73;53.37;100675.75;7347768;19;20032;-65
2023/07/04 10:41:26;;;;;;;3.60;0.57;;;;;;;20.85;52.94;100667.81;7360278;19;21785;-66
2023/07/04 10:44:00;;;;;;;4.72;0.50;;;;;;;20.89;53.57;100666.31;7332797;19;20026;-65
2023/07/04 10:46:30;;;;;;;2.80;0.57;;;;;;;20.86;52.99;100664.94;7362861;19;20025;-65
2023/07/04 10:49:04;;;;;;;3.17;0.70;;;;;;;20.84;52.58;100658.97;7358865;19;20949;-65
2023/07/04 10:51:36;;;;;;;4.20;0.70;;;;;;;20.84;53.44;100658.97;7361492;19;20018;-64
2023/07/04 10:54:07;;;;;;;3.22;0.60;;;;;;;20.83;53.30;100660.00;7357115;19;20054;-64
2023/07/04 10:56:36;;;;;;;3.47;0.60;;;;;;;20.77;53.33;100654.75;7361054;19;20014;-65
2023/07/04 10:59:15;;;;;;;5.40;1.35;;;;;;;20.69;53.65;100658.53;7360129;19;20022;-65
2023/07/04 11:01:50;;;;;;;5.40;0.80;;;;;;;20.64;53.60;100650.38;7359367;19;20014;-64
2023/07/04 11:04:23;;;;;;;4.43;0.77;;;;;;;20.60;54.39;100654.53;7360424;19;20106;-65
2023/07/04 11:06:59;;;;;;;5.07;0.77;;;;;;;20.58;54.29;100664.63;7364384;19;20011;-65
2023/07/04 11:09:33;;;;;;;4.90;0.88;;;;;;;20.53;54.73;100653.78;7362561;19;20519;-65
2023/07/04 11:12:04;;;;;;;4.28;0.70;;;;;;;20.48;54.93;100650.94;7361831;19;20022;-65
2023/07/04 11:14:39;;;;;;;4.13;1.00;;;;;;;20.44;56.27;100649.75;7340485;19;20006;-66
2023/07/04 11:17:13;;;;;;;4.50;1.20;;;;;;;20.40;56.18;100651.25;7357223;19;20022;-66
2023/07/04 11:19:56;;;;;;;6.32;0.80;;;;;;;20.33;56.20;100653.97;7359999;19;20051;-69
2023/07/04 11:22:39;;;;;;;4.28;1.10;;;;;;;20.28;55.75;100652.97;7361280;19;20067;-66
2023/07/04 11:25:26;;;;;;;4.35;1.00;;;;;;;20.22;56.03;100651.19;7358528;19;20047;-64
2023/07/04 11:28:14;;;;;;;4.40;0.82;;;;;;;20.15;56.48;100650.44;7359225;19;20103;-65
2023/07/04 11:30:45;;;;;;;7.70;2.20;;;;;;;20.08;57.72;100650.50;7360537;19;20265;-65
2023/07/04 11:33:33;;;;;;;8.18;2.33;;;;;;;20.06;58.05;100650.69;7359063;19;20018;-65
2023/07/04 11:36:04;;;;;;;6.10;1.35;;;;;;;20.00;58.94;100648.94;7361164;19;20696;-65
2023/07/04 11:38:33;;;;;;;4.63;1.05;;;;;;;19.99;60.54;100636.59;7362768;19;20089;-64
2023/07/04 11:41:02;;;;;;;4.15;1.42;;;;;;;19.97;61.55;100638.66;7360652;19;20038;-65